VCP21R OKKK-EDDM
Flight info
| Callsign | VCP21R |
|---|---|
| Flight time | N/A |
| Altitude | 32000 |
| Route | RALKA L602 GADSI M860 SEPTU DCT VUSEB M860 NINVA UM860 ODALI UL852 TIVUG/N0476F380 UL852 NEGEM DCT RONBU DCT INVED DCT SUNIS DCT VATET DCT REDBU Q112 NAPSA NAPSA4A |
| Aircraft | A346/H-SDE2E3FGHIJ3J4J5M1RWXY/LB1D1 |
Departure
| Time | 2026-05-09 05:33 |
|---|---|
| Airport | Kuwait International Airport (OKKK) |
Arrival
| Time | N/A |
|---|---|
| Airport | Munich Airport (EDDM) |
| Time | Latitude | Longitude | Altitude | Speed | Heading |
|---|---|---|---|---|---|
| 2026-05-09 05:08 | 29.23811 | 47.97312 | 165 ft | 0 kts | 240° |
| 2026-05-09 05:21 | 29.23817 | 47.97324 | 165 ft | 2 kts | 232° |
| 2026-05-09 05:21 | 29.23827 | 47.97337 | 166 ft | 2 kts | 219° |
| 2026-05-09 05:22 | 29.23840 | 47.97346 | 166 ft | 2 kts | 208° |
| 2026-05-09 05:22 | 29.23853 | 47.97353 | 166 ft | 2 kts | 197° |
| 2026-05-09 05:22 | 29.23868 | 47.97357 | 166 ft | 2 kts | 187° |
| 2026-05-09 05:22 | 29.23883 | 47.97358 | 166 ft | 2 kts | 176° |
| 2026-05-09 05:23 | 29.23898 | 47.97355 | 166 ft | 2 kts | 165° |
| 2026-05-09 05:23 | 29.23911 | 47.97350 | 166 ft | 0 kts | 155° |
| 2026-05-09 05:23 | 29.23913 | 47.97348 | 166 ft | 0 kts | 153° |
| 2026-05-09 05:25 | 29.23900 | 47.97356 | 166 ft | 4 kts | 153° |
| 2026-05-09 05:25 | 29.23862 | 47.97378 | 167 ft | 7 kts | 153° |
| 2026-05-09 05:25 | 29.23717 | 47.97454 | 166 ft | 14 kts | 169° |
| 2026-05-09 05:26 | 29.23650 | 47.97401 | 164 ft | 11 kts | 245° |
| 2026-05-09 05:26 | 29.23607 | 47.97317 | 163 ft | 13 kts | 242° |
| 2026-05-09 05:26 | 29.23564 | 47.97212 | 162 ft | 15 kts | 247° |
| 2026-05-09 05:26 | 29.23514 | 47.97085 | 158 ft | 19 kts | 245° |
| 2026-05-09 05:27 | 29.23456 | 47.96941 | 157 ft | 20 kts | 244° |
| 2026-05-09 05:27 | 29.23400 | 47.96807 | 156 ft | 14 kts | 240° |
| 2026-05-09 05:27 | 29.23339 | 47.96784 | 156 ft | 9 kts | 165° |
| 2026-05-09 05:27 | 29.23264 | 47.96818 | 156 ft | 13 kts | 155° |
| 2026-05-09 05:28 | 29.23167 | 47.96870 | 157 ft | 16 kts | 154° |
| 2026-05-09 05:28 | 29.23061 | 47.96928 | 160 ft | 17 kts | 155° |
| 2026-05-09 05:28 | 29.22949 | 47.96988 | 163 ft | 18 kts | 155° |
| 2026-05-09 05:28 | 29.22827 | 47.97052 | 164 ft | 20 kts | 155° |
| 2026-05-09 05:29 | 29.22693 | 47.97123 | 165 ft | 21 kts | 155° |
| 2026-05-09 05:29 | 29.22550 | 47.97197 | 169 ft | 22 kts | 155° |
| 2026-05-09 05:29 | 29.22404 | 47.97272 | 171 ft | 23 kts | 155° |
| 2026-05-09 05:29 | 29.22248 | 47.97355 | 173 ft | 25 kts | 152° |
| 2026-05-09 05:30 | 29.22085 | 47.97452 | 175 ft | 26 kts | 154° |
| 2026-05-09 05:30 | 29.21920 | 47.97541 | 176 ft | 26 kts | 155° |
| 2026-05-09 05:30 | 29.21753 | 47.97629 | 178 ft | 26 kts | 155° |
| 2026-05-09 05:30 | 29.21584 | 47.97715 | 180 ft | 26 kts | 156° |
| 2026-05-09 05:31 | 29.21420 | 47.97794 | 183 ft | 22 kts | 158° |
| 2026-05-09 05:31 | 29.21306 | 47.97853 | 185 ft | 12 kts | 163° |
| 2026-05-09 05:31 | 29.21258 | 47.97826 | 185 ft | 9 kts | 236° |
| 2026-05-09 05:31 | 29.21252 | 47.97744 | 183 ft | 12 kts | 288° |
| 2026-05-09 05:32 | 29.21294 | 47.97647 | 182 ft | 13 kts | 298° |
| 2026-05-09 05:32 | 29.21350 | 47.97588 | 182 ft | 11 kts | 331° |
| 2026-05-09 05:32 | 29.21579 | 47.97465 | 180 ft | 70 kts | 336° |
| 2026-05-09 05:32 | 29.22219 | 47.97125 | 169 ft | 131 kts | 334° |
| 2026-05-09 05:33 | 29.23210 | 47.96581 | 216 ft | 174 kts | 334° |
| 2026-05-09 05:33 | 29.24295 | 47.95998 | 734 ft | 173 kts | 336° |
| 2026-05-09 05:33 | 29.25409 | 47.95399 | 1207 ft | 183 kts | 338° |
| 2026-05-09 05:33 | 29.26580 | 47.94775 | 1771 ft | 188 kts | 336° |
| 2026-05-09 05:34 | 29.27769 | 47.94199 | 2321 ft | 188 kts | 338° |
| 2026-05-09 05:34 | 29.29008 | 47.93555 | 2600 ft | 203 kts | 336° |
| 2026-05-09 05:34 | 29.30330 | 47.92852 | 2945 ft | 217 kts | 336° |
| 2026-05-09 05:34 | 29.31781 | 47.92332 | 3492 ft | 222 kts | 355° |
| 2026-05-09 05:35 | 29.33384 | 47.92307 | 3829 ft | 239 kts | 360° |
| 2026-05-09 05:35 | 29.35097 | 47.92365 | 4276 ft | 251 kts | 359° |
| 2026-05-09 05:35 | 29.36848 | 47.92412 | 4905 ft | 255 kts | 358° |
| 2026-05-09 05:35 | 29.38639 | 47.92438 | 5507 ft | 261 kts | 357° |
| 2026-05-09 05:36 | 29.40479 | 47.92446 | 6122 ft | 267 kts | 356° |
| 2026-05-09 05:36 | 29.42335 | 47.92442 | 6753 ft | 272 kts | 355° |
| 2026-05-09 05:36 | 29.44243 | 47.92429 | 7411 ft | 276 kts | 355° |
| 2026-05-09 05:36 | 29.46157 | 47.92413 | 8070 ft | 280 kts | 355° |
| 2026-05-09 05:37 | 29.48111 | 47.92393 | 8729 ft | 284 kts | 355° |
| 2026-05-09 05:37 | 29.50116 | 47.92373 | 9386 ft | 288 kts | 355° |
| 2026-05-09 05:37 | 29.52136 | 47.92350 | 10038 ft | 292 kts | 355° |
| 2026-05-09 05:37 | 29.54166 | 47.92324 | 10543 ft | 301 kts | 355° |
| 2026-05-09 05:38 | 29.56348 | 47.92294 | 10856 ft | 319 kts | 355° |
| 2026-05-09 05:38 | 29.58621 | 47.92265 | 11154 ft | 336 kts | 356° |
| 2026-05-09 05:38 | 29.61013 | 47.92238 | 11445 ft | 353 kts | 356° |
| 2026-05-09 05:38 | 29.63522 | 47.92210 | 11729 ft | 370 kts | 356° |
| 2026-05-09 05:39 | 29.66177 | 47.92180 | 12087 ft | 384 kts | 357° |
| 2026-05-09 05:39 | 29.68847 | 47.92151 | 12699 ft | 390 kts | 357° |
| 2026-05-09 05:39 | 29.71583 | 47.92123 | 13428 ft | 392 kts | 357° |
| 2026-05-09 05:39 | 29.74305 | 47.92098 | 14119 ft | 395 kts | 357° |
| 2026-05-09 05:40 | 29.77056 | 47.92070 | 14775 ft | 399 kts | 357° |
| 2026-05-09 05:40 | 29.79874 | 47.92040 | 15414 ft | 403 kts | 356° |
| 2026-05-09 05:40 | 29.82678 | 47.92010 | 16052 ft | 406 kts | 356° |
| 2026-05-09 05:40 | 29.85509 | 47.91978 | 16680 ft | 410 kts | 356° |
| 2026-05-09 05:41 | 29.88374 | 47.91944 | 17299 ft | 413 kts | 356° |
| 2026-05-09 05:41 | 29.91260 | 47.91911 | 17899 ft | 417 kts | 356° |
| 2026-05-09 05:41 | 29.94175 | 47.91878 | 18476 ft | 421 kts | 356° |
| 2026-05-09 05:41 | 29.97116 | 47.91847 | 19030 ft | 425 kts | 356° |
| 2026-05-09 05:42 | 30.00055 | 47.91578 | 19513 ft | 424 kts | 343° |
| 2026-05-09 05:42 | 30.02768 | 47.90326 | 20043 ft | 419 kts | 326° |
| 2026-05-09 05:42 | 30.05005 | 47.88244 | 20599 ft | 414 kts | 309° |
| 2026-05-09 05:42 | 30.06883 | 47.85713 | 21164 ft | 416 kts | 307° |
| 2026-05-09 05:43 | 30.08753 | 47.83190 | 21711 ft | 418 kts | 307° |
| 2026-05-09 05:43 | 30.10666 | 47.80626 | 22261 ft | 421 kts | 307° |
| 2026-05-09 05:43 | 30.12593 | 47.78045 | 22808 ft | 423 kts | 307° |
| 2026-05-09 05:43 | 30.14516 | 47.75473 | 23344 ft | 425 kts | 307° |
| 2026-05-09 05:44 | 30.16429 | 47.72910 | 23808 ft | 429 kts | 307° |
| 2026-05-09 05:44 | 30.18378 | 47.70299 | 24264 ft | 432 kts | 307° |
| 2026-05-09 05:44 | 30.20370 | 47.67631 | 24738 ft | 435 kts | 307° |
| 2026-05-09 05:44 | 30.22341 | 47.64990 | 25222 ft | 437 kts | 307° |
| 2026-05-09 05:45 | 30.24319 | 47.62340 | 25655 ft | 439 kts | 307° |
| 2026-05-09 05:45 | 30.26324 | 47.59651 | 26085 ft | 442 kts | 307° |
| 2026-05-09 05:45 | 30.28332 | 47.56955 | 26514 ft | 444 kts | 307° |
| 2026-05-09 05:45 | 30.30354 | 47.54239 | 26945 ft | 446 kts | 307° |
| 2026-05-09 05:46 | 30.32378 | 47.51517 | 27375 ft | 448 kts | 307° |
| 2026-05-09 05:46 | 30.34414 | 47.48782 | 27760 ft | 451 kts | 307° |
| 2026-05-09 05:46 | 30.36464 | 47.46023 | 28131 ft | 454 kts | 307° |
| 2026-05-09 05:46 | 30.38515 | 47.43259 | 28546 ft | 455 kts | 307° |
| 2026-05-09 05:47 | 30.40576 | 47.40485 | 29062 ft | 454 kts | 307° |
| 2026-05-09 05:47 | 30.42630 | 47.37718 | 29598 ft | 452 kts | 307° |
| 2026-05-09 05:47 | 30.44657 | 47.34983 | 30097 ft | 450 kts | 306° |
| 2026-05-09 05:47 | 30.46717 | 47.32202 | 30592 ft | 449 kts | 307° |
| 2026-05-09 05:48 | 30.48811 | 47.29366 | 31052 ft | 448 kts | 307° |
| 2026-05-09 05:48 | 30.50820 | 47.26646 | 31503 ft | 447 kts | 307° |
| 2026-05-09 05:48 | 30.52831 | 47.23925 | 31909 ft | 446 kts | 307° |
| 2026-05-09 05:48 | 30.54915 | 47.21257 | 32298 ft | 447 kts | 309° |
| 2026-05-09 05:49 | 30.57131 | 47.18680 | 32711 ft | 448 kts | 312° |
| 2026-05-09 05:49 | 30.59425 | 47.16261 | 33129 ft | 448 kts | 315° |
| 2026-05-09 05:49 | 30.61810 | 47.13964 | 33502 ft | 448 kts | 316° |
| 2026-05-09 05:49 | 30.64223 | 47.11701 | 33865 ft | 449 kts | 316° |
| 2026-05-09 05:50 | 30.66673 | 47.09415 | 34255 ft | 448 kts | 316° |
| 2026-05-09 05:50 | 30.69119 | 47.07135 | 34617 ft | 448 kts | 316° |
| 2026-05-09 05:50 | 30.71532 | 47.04885 | 34931 ft | 448 kts | 316° |
| 2026-05-09 05:50 | 30.73985 | 47.02590 | 35229 ft | 449 kts | 316° |
| 2026-05-09 05:51 | 30.76402 | 47.00328 | 35511 ft | 449 kts | 316° |
| 2026-05-09 05:51 | 30.78849 | 46.98038 | 35749 ft | 451 kts | 316° |
| 2026-05-09 05:51 | 30.81288 | 46.95751 | 35950 ft | 452 kts | 316° |
| 2026-05-09 05:51 | 30.83770 | 46.93422 | 35987 ft | 453 kts | 316° |
| 2026-05-09 05:52 | 30.88685 | 46.88802 | 36003 ft | 452 kts | 316° |
| 2026-05-09 05:52 | 30.93605 | 46.84177 | 35992 ft | 452 kts | 316° |
| 2026-05-09 05:53 | 30.98473 | 46.79595 | 35997 ft | 450 kts | 316° |
| 2026-05-09 05:53 | 31.03345 | 46.74999 | 35998 ft | 450 kts | 316° |
| 2026-05-09 05:54 | 31.08198 | 46.70420 | 35991 ft | 448 kts | 316° |
| 2026-05-09 05:54 | 31.13069 | 46.65810 | 35989 ft | 448 kts | 316° |
| 2026-05-09 05:55 | 31.17898 | 46.61240 | 36000 ft | 447 kts | 317° |
| 2026-05-09 05:55 | 31.22730 | 46.56657 | 35990 ft | 447 kts | 317° |
| 2026-05-09 05:56 | 31.27566 | 46.52070 | 35992 ft | 447 kts | 317° |
| 2026-05-09 05:56 | 31.32401 | 46.47472 | 35992 ft | 446 kts | 317° |
| 2026-05-09 05:57 | 31.37236 | 46.42868 | 35989 ft | 447 kts | 317° |
| 2026-05-09 05:57 | 31.42044 | 46.38288 | 35991 ft | 445 kts | 317° |
| 2026-05-09 05:58 | 31.46839 | 46.33709 | 35988 ft | 444 kts | 317° |
| 2026-05-09 05:58 | 31.51631 | 46.29129 | 35988 ft | 443 kts | 317° |
| 2026-05-09 05:59 | 31.56433 | 46.24532 | 35988 ft | 443 kts | 317° |
| 2026-05-09 05:59 | 31.61221 | 46.19940 | 35987 ft | 442 kts | 317° |
| 2026-05-09 06:00 | 31.65963 | 46.15387 | 35986 ft | 443 kts | 317° |
| 2026-05-09 06:00 | 31.70740 | 46.10791 | 35984 ft | 442 kts | 317° |
| 2026-05-09 06:01 | 31.75490 | 46.06214 | 35985 ft | 441 kts | 316° |
| 2026-05-09 06:01 | 31.80207 | 46.01562 | 35984 ft | 441 kts | 316° |
| 2026-05-09 06:02 | 31.84914 | 45.96891 | 35986 ft | 441 kts | 316° |
| 2026-05-09 06:02 | 31.89617 | 45.92220 | 35989 ft | 441 kts | 316° |
| 2026-05-09 06:03 | 31.94308 | 45.87557 | 36009 ft | 441 kts | 316° |
| 2026-05-09 06:03 | 31.98975 | 45.82909 | 36011 ft | 440 kts | 316° |
| 2026-05-09 06:04 | 32.03628 | 45.78271 | 36014 ft | 439 kts | 316° |
| 2026-05-09 06:04 | 32.08276 | 45.73629 | 36011 ft | 439 kts | 316° |
| 2026-05-09 06:05 | 32.12930 | 45.68975 | 36015 ft | 438 kts | 316° |
| 2026-05-09 06:05 | 32.17619 | 45.64282 | 36007 ft | 437 kts | 316° |
| 2026-05-09 06:06 | 32.22244 | 45.59645 | 36015 ft | 438 kts | 316° |
| 2026-05-09 06:06 | 32.26875 | 45.54997 | 36017 ft | 436 kts | 316° |
| 2026-05-09 06:07 | 32.31491 | 45.50353 | 36012 ft | 436 kts | 316° |
| 2026-05-09 06:07 | 32.36122 | 45.45689 | 36017 ft | 435 kts | 317° |
| 2026-05-09 06:08 | 32.40704 | 45.41069 | 36017 ft | 434 kts | 316° |
| 2026-05-09 06:08 | 32.45275 | 45.36453 | 36020 ft | 433 kts | 316° |
| 2026-05-09 06:09 | 32.49879 | 45.31795 | 36020 ft | 433 kts | 316° |
| 2026-05-09 06:09 | 32.54504 | 45.27224 | 36016 ft | 434 kts | 319° |
| 2026-05-09 06:10 | 32.59436 | 45.23078 | 36021 ft | 434 kts | 322° |
| 2026-05-09 06:10 | 32.64479 | 45.19076 | 36019 ft | 434 kts | 322° |
| 2026-05-09 06:11 | 32.69495 | 45.15097 | 36022 ft | 434 kts | 322° |
| 2026-05-09 06:11 | 32.74513 | 45.11111 | 36023 ft | 434 kts | 322° |
| 2026-05-09 06:12 | 32.77018 | 45.09118 | 35842 ft | 435 kts | 322° |
| 2026-05-09 06:12 | 32.79525 | 45.07121 | 35964 ft | 436 kts | 322° |
| 2026-05-09 06:12 | 32.84565 | 45.03105 | 36022 ft | 438 kts | 322° |
| 2026-05-09 06:13 | 32.89611 | 44.99076 | 36036 ft | 437 kts | 322° |
| 2026-05-09 06:13 | 32.94673 | 44.95034 | 36046 ft | 437 kts | 322° |
| 2026-05-09 06:14 | 32.99710 | 44.90997 | 36045 ft | 437 kts | 322° |
| 2026-05-09 06:14 | 33.04758 | 44.86949 | 36055 ft | 437 kts | 322° |
| 2026-05-09 06:15 | 33.09790 | 44.82908 | 36050 ft | 437 kts | 322° |
| 2026-05-09 06:15 | 33.14912 | 44.78905 | 36041 ft | 439 kts | 325° |
| 2026-05-09 06:16 | 33.20316 | 44.75422 | 36032 ft | 442 kts | 330° |
| 2026-05-09 06:16 | 33.26024 | 44.72546 | 36041 ft | 445 kts | 335° |
| 2026-05-09 06:17 | 33.31943 | 44.70339 | 36037 ft | 449 kts | 340° |
| 2026-05-09 06:17 | 33.38058 | 44.68505 | 36043 ft | 450 kts | 341° |
| 2026-05-09 06:18 | 33.44102 | 44.66724 | 36040 ft | 450 kts | 341° |
| 2026-05-09 06:18 | 33.50256 | 44.64910 | 36035 ft | 450 kts | 341° |
| 2026-05-09 06:19 | 33.56365 | 44.63103 | 36042 ft | 450 kts | 341° |
| 2026-05-09 06:19 | 33.62485 | 44.61290 | 36042 ft | 450 kts | 341° |
| 2026-05-09 06:20 | 33.68631 | 44.59466 | 36030 ft | 450 kts | 341° |
| 2026-05-09 06:20 | 33.74709 | 44.57659 | 36040 ft | 450 kts | 341° |
| 2026-05-09 06:21 | 33.80825 | 44.55841 | 36032 ft | 450 kts | 341° |
| 2026-05-09 06:21 | 33.86908 | 44.54029 | 36038 ft | 449 kts | 341° |
| 2026-05-09 06:22 | 33.92988 | 44.52214 | 36036 ft | 451 kts | 341° |
| 2026-05-09 06:22 | 33.99074 | 44.50396 | 36040 ft | 450 kts | 341° |
| 2026-05-09 06:23 | 34.05152 | 44.48576 | 36034 ft | 448 kts | 341° |
| 2026-05-09 06:23 | 34.11216 | 44.46758 | 36032 ft | 449 kts | 341° |
| 2026-05-09 06:24 | 34.17324 | 44.44924 | 36033 ft | 449 kts | 341° |
| 2026-05-09 06:24 | 34.23358 | 44.43109 | 36036 ft | 449 kts | 341° |
| 2026-05-09 06:25 | 34.29445 | 44.41277 | 36035 ft | 449 kts | 341° |
| 2026-05-09 06:25 | 34.35473 | 44.39459 | 36036 ft | 448 kts | 341° |
| 2026-05-09 06:26 | 34.41566 | 44.37619 | 36038 ft | 448 kts | 341° |
| 2026-05-09 06:26 | 34.47608 | 44.35793 | 36041 ft | 448 kts | 341° |
| 2026-05-09 06:27 | 34.53706 | 44.33944 | 36043 ft | 447 kts | 340° |
| 2026-05-09 06:27 | 34.59738 | 44.32114 | 36047 ft | 447 kts | 340° |
| 2026-05-09 06:28 | 34.65797 | 44.30273 | 36054 ft | 447 kts | 340° |
| 2026-05-09 06:28 | 34.71836 | 44.28436 | 36052 ft | 447 kts | 340° |
| 2026-05-09 06:29 | 34.77855 | 44.26603 | 36056 ft | 447 kts | 340° |
| 2026-05-09 06:29 | 34.83895 | 44.24760 | 36060 ft | 447 kts | 340° |
| 2026-05-09 06:30 | 34.89952 | 44.22908 | 36060 ft | 446 kts | 340° |
| 2026-05-09 06:30 | 34.96013 | 44.21052 | 36059 ft | 446 kts | 340° |
| 2026-05-09 06:31 | 35.01998 | 44.19218 | 36057 ft | 446 kts | 340° |
| 2026-05-09 06:31 | 35.08011 | 44.17371 | 36062 ft | 446 kts | 340° |
| 2026-05-09 06:32 | 35.14076 | 44.15507 | 36062 ft | 447 kts | 340° |
| 2026-05-09 06:33 | 35.23104 | 44.12723 | 36060 ft | 446 kts | 340° |
| 2026-05-09 06:33 | 35.29139 | 44.10861 | 36066 ft | 446 kts | 340° |
| 2026-05-09 06:34 | 35.38127 | 44.08081 | 36069 ft | 446 kts | 340° |
| 2026-05-09 06:34 | 35.44181 | 44.06205 | 36073 ft | 446 kts | 340° |
| 2026-05-09 06:35 | 35.50221 | 44.04330 | 36070 ft | 446 kts | 340° |
| 2026-05-09 06:35 | 35.56290 | 44.02443 | 36075 ft | 446 kts | 340° |
| 2026-05-09 06:36 | 35.62324 | 44.00563 | 36077 ft | 446 kts | 340° |
| 2026-05-09 06:36 | 35.68350 | 43.98685 | 36075 ft | 446 kts | 340° |
| 2026-05-09 06:37 | 35.74364 | 43.96807 | 36075 ft | 446 kts | 340° |
| 2026-05-09 06:37 | 35.80418 | 43.94913 | 36074 ft | 446 kts | 340° |
| 2026-05-09 06:38 | 35.86460 | 43.93019 | 36077 ft | 446 kts | 340° |
| 2026-05-09 06:38 | 35.92459 | 43.91137 | 36078 ft | 446 kts | 340° |
| 2026-05-09 06:39 | 35.98486 | 43.89241 | 36080 ft | 446 kts | 340° |
| 2026-05-09 06:39 | 36.04495 | 43.87347 | 36082 ft | 446 kts | 340° |
| 2026-05-09 06:40 | 36.10520 | 43.85447 | 36088 ft | 447 kts | 340° |
| 2026-05-09 06:40 | 36.16587 | 43.83528 | 36088 ft | 446 kts | 340° |
| 2026-05-09 06:41 | 36.22592 | 43.81628 | 36092 ft | 446 kts | 340° |
| 2026-05-09 06:41 | 36.28501 | 43.79446 | 36085 ft | 442 kts | 336° |
| 2026-05-09 06:42 | 36.34214 | 43.76656 | 36089 ft | 441 kts | 333° |
| 2026-05-09 06:42 | 36.39880 | 43.73723 | 36092 ft | 441 kts | 333° |
| 2026-05-09 06:43 | 36.45511 | 43.70795 | 36089 ft | 441 kts | 333° |
| 2026-05-09 06:43 | 36.51178 | 43.67848 | 36094 ft | 440 kts | 333° |
| 2026-05-09 06:44 | 36.56889 | 43.64875 | 36093 ft | 440 kts | 333° |
| 2026-05-09 06:44 | 36.62571 | 43.61910 | 36105 ft | 441 kts | 333° |
| 2026-05-09 06:45 | 36.68225 | 43.58955 | 36106 ft | 441 kts | 333° |
| 2026-05-09 06:45 | 36.73865 | 43.56001 | 36105 ft | 441 kts | 333° |
| 2026-05-09 06:46 | 36.79494 | 43.52929 | 36118 ft | 440 kts | 332° |
| 2026-05-09 06:46 | 36.85069 | 43.49800 | 36132 ft | 440 kts | 332° |